sensor_id;sensor_type;location;lat;lon;timestamp;P1;durP1;ratioP1;P2;durP2;ratioP2
71104;SDS011;58760;48.716;8.962;2022-11-11T00:00:25;11.73;;;4.85;;
71104;SDS011;58760;48.716;8.962;2022-11-11T00:02:53;11.82;;;4.50;;
71104;SDS011;58760;48.716;8.962;2022-11-11T00:05:19;12.27;;;4.50;;
71104;SDS011;58760;48.716;8.962;2022-11-11T02:05:20;8.20;;;3.78;;
71104;SDS011;58760;48.716;8.962;2022-11-11T02:08:10;9.38;;;3.90;;
71104;SDS011;58760;48.716;8.962;2022-11-11T02:10:43;10.30;;;3.50;;
71104;SDS011;58760;48.716;8.962;2022-11-11T02:13:12;8.55;;;3.55;;
71104;SDS011;58760;48.716;8.962;2022-11-11T02:15:57;8.77;;;3.42;;
71104;SDS011;58760;48.716;8.962;2022-11-11T02:18:23;6.53;;;3.28;;
71104;SDS011;58760;48.716;8.962;2022-11-11T02:20:49;7.63;;;3.40;;
71104;SDS011;58760;48.716;8.962;2022-11-11T02:23:27;9.15;;;3.70;;
71104;SDS011;58760;48.716;8.962;2022-11-11T02:26:00;7.45;;;3.40;;
71104;SDS011;58760;48.716;8.962;2022-11-11T02:28:28;10.82;;;3.40;;
71104;SDS011;58760;48.716;8.962;2022-11-11T02:30:56;9.25;;;3.70;;
71104;SDS011;58760;48.716;8.962;2022-11-11T02:33:21;7.90;;;3.60;;
71104;SDS011;58760;48.716;8.962;2022-11-11T02:35:50;8.90;;;3.50;;
71104;SDS011;58760;48.716;8.962;2022-11-11T02:38:22;8.23;;;3.55;;
71104;SDS011;58760;48.716;8.962;2022-11-11T02:40:49;11.10;;;3.55;;
71104;SDS011;58760;48.716;8.962;2022-11-11T02:43:34;7.22;;;3.70;;
71104;SDS011;58760;48.716;8.962;2022-11-11T02:46:00;9.90;;;3.58;;
71104;SDS011;58760;48.716;8.962;2022-11-11T02:48:26;8.82;;;3.60;;
71104;SDS011;58760;48.716;8.962;2022-11-11T02:50:52;6.43;;;3.28;;
71104;SDS011;58760;48.716;8.962;2022-11-11T02:53:18;8.40;;;3.10;;
71104;SDS011;58760;48.716;8.962;2022-11-11T02:55:44;8.00;;;3.38;;
71104;SDS011;58760;48.716;8.962;2022-11-11T02:58:10;9.15;;;3.50;;
71104;SDS011;58760;48.716;8.962;2022-11-11T03:00:35;6.28;;;3.20;;
71104;SDS011;58760;48.716;8.962;2022-11-11T03:03:01;8.85;;;3.42;;
71104;SDS011;58760;48.716;8.962;2022-11-11T03:05:26;7.13;;;3.20;;
71104;SDS011;58760;48.716;8.962;2022-11-11T03:07:52;7.05;;;3.25;;
71104;SDS011;58760;48.716;8.962;2022-11-11T03:10:17;9.07;;;3.35;;
71104;SDS011;58760;48.716;8.962;2022-11-11T03:12:42;7.38;;;2.90;;
71104;SDS011;58760;48.716;8.962;2022-11-11T03:15:08;7.43;;;3.17;;
71104;SDS011;58760;48.716;8.962;2022-11-11T03:17:34;7.82;;;3.10;;
71104;SDS011;58760;48.716;8.962;2022-11-11T03:20:09;6.97;;;3.28;;
71104;SDS011;58760;48.716;8.962;2022-11-11T03:23:00;6.55;;;3.13;;
71104;SDS011;58760;48.716;8.962;2022-11-11T03:25:30;8.15;;;3.40;;
71104;SDS011;58760;48.716;8.962;2022-11-11T03:28:03;7.63;;;3.50;;
71104;SDS011;58760;48.716;8.962;2022-11-11T03:30:36;6.88;;;2.97;;
71104;SDS011;58760;48.716;8.962;2022-11-11T03:33:02;8.45;;;3.33;;
71104;SDS011;58760;48.716;8.962;2022-11-11T03:35:28;10.55;;;3.65;;
71104;SDS011;58760;48.716;8.962;2022-11-11T03:37:55;7.53;;;3.03;;
71104;SDS011;58760;48.716;8.962;2022-11-11T03:40:39;9.48;;;3.75;;
71104;SDS011;58760;48.716;8.962;2022-11-11T03:43:04;7.07;;;3.38;;
71104;SDS011;58760;48.716;8.962;2022-11-11T03:45:30;9.00;;;3.30;;
71104;SDS011;58760;48.716;8.962;2022-11-11T03:47:55;9.05;;;3.15;;
71104;SDS011;58760;48.716;8.962;2022-11-11T03:50:21;7.10;;;3.70;;
71104;SDS011;58760;48.716;8.962;2022-11-11T03:52:47;7.72;;;3.47;;
71104;SDS011;58760;48.716;8.962;2022-11-11T03:55:13;8.80;;;3.33;;
71104;SDS011;58760;48.716;8.962;2022-11-11T03:57:42;7.97;;;3.78;;
71104;SDS011;58760;48.716;8.962;2022-11-11T04:00:09;7.40;;;3.75;;
71104;SDS011;58760;48.716;8.962;2022-11-11T04:02:36;7.88;;;3.60;;
71104;SDS011;58760;48.716;8.962;2022-11-11T04:05:20;10.07;;;4.35;;
71104;SDS011;58760;48.716;8.962;2022-11-11T04:08:04;8.00;;;3.83;;
71104;SDS011;58760;48.716;8.962;2022-11-11T04:10:48;7.18;;;3.90;;
71104;SDS011;58760;48.716;8.962;2022-11-11T04:13:13;7.30;;;3.83;;
71104;SDS011;58760;48.716;8.962;2022-11-11T04:15:57;8.95;;;4.15;;
71104;SDS011;58760;48.716;8.962;2022-11-11T04:18:32;7.75;;;3.95;;
71104;SDS011;58760;48.716;8.962;2022-11-11T04:21:17;7.95;;;4.00;;
71104;SDS011;58760;48.716;8.962;2022-11-11T04:24:00;12.85;;;4.25;;
71104;SDS011;58760;48.716;8.962;2022-11-11T04:26:26;8.63;;;4.25;;
71104;SDS011;58760;48.716;8.962;2022-11-11T04:28:51;7.13;;;3.53;;
71104;SDS011;58760;48.716;8.962;2022-11-11T04:31:35;8.82;;;3.72;;
71104;SDS011;58760;48.716;8.962;2022-11-11T04:34:01;12.00;;;3.45;;
71104;SDS011;58760;48.716;8.962;2022-11-11T04:36:26;7.05;;;3.33;;
71104;SDS011;58760;48.716;8.962;2022-11-11T04:38:51;6.07;;;3.08;;
71104;SDS011;58760;48.716;8.962;2022-11-11T04:41:35;6.10;;;3.28;;
71104;SDS011;58760;48.716;8.962;2022-11-11T04:44:01;6.75;;;3.13;;
71104;SDS011;58760;48.716;8.962;2022-11-11T04:46:45;7.10;;;3.17;;
71104;SDS011;58760;48.716;8.962;2022-11-11T04:49:10;6.57;;;3.05;;
71104;SDS011;58760;48.716;8.962;2022-11-11T04:51:36;6.22;;;3.08;;
71104;SDS011;58760;48.716;8.962;2022-11-11T04:54:19;6.70;;;3.47;;
71104;SDS011;58760;48.716;8.962;2022-11-11T04:56:45;6.22;;;3.22;;
71104;SDS011;58760;48.716;8.962;2022-11-11T04:59:14;5.47;;;3.00;;
71104;SDS011;58760;48.716;8.962;2022-11-11T05:01:40;6.30;;;2.78;;
71104;SDS011;58760;48.716;8.962;2022-11-11T05:04:24;6.10;;;3.17;;
71104;SDS011;58760;48.716;8.962;2022-11-11T05:06:50;6.10;;;3.05;;
71104;SDS011;58760;48.716;8.962;2022-11-11T05:09:34;6.15;;;2.97;;
71104;SDS011;58760;48.716;8.962;2022-11-11T05:12:00;6.35;;;3.13;;
71104;SDS011;58760;48.716;8.962;2022-11-11T05:14:25;7.28;;;3.50;;
71104;SDS011;58760;48.716;8.962;2022-11-11T05:17:09;6.35;;;3.30;;
71104;SDS011;58760;48.716;8.962;2022-11-11T05:19:53;7.68;;;3.60;;
71104;SDS011;58760;48.716;8.962;2022-11-11T05:22:41;6.90;;;3.38;;
71104;SDS011;58760;48.716;8.962;2022-11-11T05:25:08;6.75;;;3.35;;
71104;SDS011;58760;48.716;8.962;2022-11-11T05:27:53;9.38;;;3.42;;
71104;SDS011;58760;48.716;8.962;2022-11-11T05:30:18;6.75;;;3.58;;
71104;SDS011;58760;48.716;8.962;2022-11-11T05:32:45;6.25;;;3.38;;
71104;SDS011;58760;48.716;8.962;2022-11-11T05:35:10;6.15;;;3.03;;
71104;SDS011;58760;48.716;8.962;2022-11-11T05:37:36;6.13;;;3.10;;
71104;SDS011;58760;48.716;8.962;2022-11-11T05:40:02;6.18;;;2.80;;
71104;SDS011;58760;48.716;8.962;2022-11-11T05:42:28;6.70;;;2.97;;
71104;SDS011;58760;48.716;8.962;2022-11-11T05:44:53;5.93;;;2.88;;
71104;SDS011;58760;48.716;8.962;2022-11-11T05:47:19;5.18;;;2.78;;
71104;SDS011;58760;48.716;8.962;2022-11-11T05:49:44;5.63;;;3.22;;
71104;SDS011;58760;48.716;8.962;2022-11-11T05:52:10;7.22;;;2.88;;
71104;SDS011;58760;48.716;8.962;2022-11-11T05:54:37;7.15;;;2.70;;
71104;SDS011;58760;48.716;8.962;2022-11-11T05:57:03;6.25;;;2.80;;
71104;SDS011;58760;48.716;8.962;2022-11-11T05:59:28;5.32;;;2.30;;
71104;SDS011;58760;48.716;8.962;2022-11-11T06:01:54;5.50;;;2.65;;
71104;SDS011;58760;48.716;8.962;2022-11-11T06:04:19;7.53;;;2.70;;
71104;SDS011;58760;48.716;8.962;2022-11-11T06:06:44;6.38;;;2.72;;
71104;SDS011;58760;48.716;8.962;2022-11-11T06:09:10;7.10;;;2.80;;
71104;SDS011;58760;48.716;8.962;2022-11-11T06:11:35;5.55;;;2.60;;
71104;SDS011;58760;48.716;8.962;2022-11-11T06:14:01;5.40;;;2.60;;
71104;SDS011;58760;48.716;8.962;2022-11-11T06:16:26;5.50;;;2.50;;
71104;SDS011;58760;48.716;8.962;2022-11-11T06:18:52;5.38;;;2.60;;
71104;SDS011;58760;48.716;8.962;2022-11-11T06:21:17;6.22;;;2.70;;
71104;SDS011;58760;48.716;8.962;2022-11-11T06:23:43;5.25;;;2.65;;
71104;SDS011;58760;48.716;8.962;2022-11-11T06:26:12;5.47;;;2.70;;
71104;SDS011;58760;48.716;8.962;2022-11-11T06:28:39;5.70;;;2.47;;
71104;SDS011;58760;48.716;8.962;2022-11-11T06:31:09;5.15;;;2.70;;
71104;SDS011;58760;48.716;8.962;2022-11-11T06:33:36;6.80;;;2.70;;
71104;SDS011;58760;48.716;8.962;2022-11-11T06:36:03;6.75;;;3.70;;
71104;SDS011;58760;48.716;8.962;2022-11-11T06:38:29;7.28;;;4.07;;
71104;SDS011;58760;48.716;8.962;2022-11-11T06:40:55;7.10;;;3.25;;
71104;SDS011;58760;48.716;8.962;2022-11-11T06:43:20;7.05;;;3.45;;
71104;SDS011;58760;48.716;8.962;2022-11-11T06:45:48;5.18;;;2.83;;
71104;SDS011;58760;48.716;8.962;2022-11-11T06:48:15;6.75;;;3.20;;
71104;SDS011;58760;48.716;8.962;2022-11-11T06:50:40;6.50;;;2.97;;
71104;SDS011;58760;48.716;8.962;2022-11-11T06:53:06;5.63;;;2.55;;
71104;SDS011;58760;48.716;8.962;2022-11-11T06:55:34;5.35;;;2.95;;
71104;SDS011;58760;48.716;8.962;2022-11-11T06:58:06;6.07;;;2.95;;
71104;SDS011;58760;48.716;8.962;2022-11-11T07:00:36;7.20;;;2.80;;
71104;SDS011;58760;48.716;8.962;2022-11-11T07:03:03;6.93;;;3.22;;
71104;SDS011;58760;48.716;8.962;2022-11-11T07:05:29;7.22;;;3.30;;
71104;SDS011;58760;48.716;8.962;2022-11-11T07:07:56;8.60;;;3.63;;
71104;SDS011;58760;48.716;8.962;2022-11-11T07:10:25;7.50;;;3.55;;
71104;SDS011;58760;48.716;8.962;2022-11-11T07:12:51;6.93;;;3.53;;
71104;SDS011;58760;48.716;8.962;2022-11-11T07:15:16;7.78;;;3.60;;
71104;SDS011;58760;48.716;8.962;2022-11-11T07:17:41;8.15;;;3.78;;
71104;SDS011;58760;48.716;8.962;2022-11-11T07:20:07;11.73;;;3.83;;
71104;SDS011;58760;48.716;8.962;2022-11-11T07:22:36;6.80;;;3.28;;
71104;SDS011;58760;48.716;8.962;2022-11-11T07:25:02;9.32;;;3.45;;
71104;SDS011;58760;48.716;8.962;2022-11-11T07:27:28;7.78;;;3.35;;
71104;SDS011;58760;48.716;8.962;2022-11-11T07:29:53;5.82;;;2.92;;
71104;SDS011;58760;48.716;8.962;2022-11-11T07:32:19;6.88;;;3.17;;
71104;SDS011;58760;48.716;8.962;2022-11-11T07:34:44;8.43;;;3.10;;
71104;SDS011;58760;48.716;8.962;2022-11-11T07:37:09;5.72;;;2.67;;
71104;SDS011;58760;48.716;8.962;2022-11-11T07:39:35;6.93;;;3.05;;
71104;SDS011;58760;48.716;8.962;2022-11-11T07:42:00;8.82;;;3.38;;
71104;SDS011;58760;48.716;8.962;2022-11-11T07:44:26;7.63;;;3.10;;
71104;SDS011;58760;48.716;8.962;2022-11-11T07:46:51;7.20;;;2.97;;
71104;SDS011;58760;48.716;8.962;2022-11-11T07:49:17;5.13;;;2.53;;
71104;SDS011;58760;48.716;8.962;2022-11-11T07:51:42;6.55;;;3.30;;
71104;SDS011;58760;48.716;8.962;2022-11-11T07:54:07;5.88;;;3.05;;
71104;SDS011;58760;48.716;8.962;2022-11-11T07:56:33;9.32;;;4.03;;
71104;SDS011;58760;48.716;8.962;2022-11-11T07:58:58;8.43;;;3.20;;
71104;SDS011;58760;48.716;8.962;2022-11-11T08:01:24;8.27;;;3.25;;
71104;SDS011;58760;48.716;8.962;2022-11-11T08:03:49;6.35;;;3.00;;
71104;SDS011;58760;48.716;8.962;2022-11-11T08:06:18;7.97;;;2.92;;
71104;SDS011;58760;48.716;8.962;2022-11-11T08:08:44;6.40;;;3.08;;
71104;SDS011;58760;48.716;8.962;2022-11-11T08:11:10;7.00;;;3.05;;
71104;SDS011;58760;48.716;8.962;2022-11-11T08:13:36;6.85;;;3.30;;
71104;SDS011;58760;48.716;8.962;2022-11-11T08:16:05;9.05;;;2.75;;
71104;SDS011;58760;48.716;8.962;2022-11-11T08:18:35;6.05;;;2.72;;
71104;SDS011;58760;48.716;8.962;2022-11-11T08:21:00;6.88;;;3.30;;
71104;SDS011;58760;48.716;8.962;2022-11-11T08:23:27;7.13;;;3.25;;
71104;SDS011;58760;48.716;8.962;2022-11-11T08:25:59;6.75;;;2.85;;
71104;SDS011;58760;48.716;8.962;2022-11-11T08:28:25;5.97;;;2.88;;
71104;SDS011;58760;48.716;8.962;2022-11-11T08:33:16;5.65;;;2.45;;
71104;SDS011;58760;48.716;8.962;2022-11-11T08:35:42;5.03;;;2.53;;
71104;SDS011;58760;48.716;8.962;2022-11-11T08:38:07;5.70;;;2.90;;
71104;SDS011;58760;48.716;8.962;2022-11-11T08:40:33;6.55;;;3.10;;
71104;SDS011;58760;48.716;8.962;2022-11-11T08:42:58;5.78;;;2.75;;
71104;SDS011;58760;48.716;8.962;2022-11-11T08:45:24;6.47;;;2.90;;
71104;SDS011;58760;48.716;8.962;2022-11-11T08:47:50;8.32;;;3.08;;
71104;SDS011;58760;48.716;8.962;2022-11-11T08:50:16;5.60;;;2.63;;
71104;SDS011;58760;48.716;8.962;2022-11-11T08:52:45;7.75;;;2.92;;
71104;SDS011;58760;48.716;8.962;2022-11-11T08:55:15;5.43;;;2.63;;
71104;SDS011;58760;48.716;8.962;2022-11-11T08:57:40;5.00;;;2.33;;
71104;SDS011;58760;48.716;8.962;2022-11-11T09:00:06;5.82;;;2.53;;
71104;SDS011;58760;48.716;8.962;2022-11-11T09:02:32;9.13;;;2.60;;
71104;SDS011;58760;48.716;8.962;2022-11-11T09:04:58;7.70;;;2.65;;
71104;SDS011;58760;48.716;8.962;2022-11-11T09:07:23;6.72;;;2.67;;
71104;SDS011;58760;48.716;8.962;2022-11-11T09:09:49;5.10;;;2.50;;
71104;SDS011;58760;48.716;8.962;2022-11-11T09:12:14;7.13;;;2.90;;
71104;SDS011;58760;48.716;8.962;2022-11-11T09:14:40;6.50;;;2.97;;
71104;SDS011;58760;48.716;8.962;2022-11-11T09:17:05;6.35;;;2.65;;
71104;SDS011;58760;48.716;8.962;2022-11-11T09:19:31;7.38;;;2.92;;
71104;SDS011;58760;48.716;8.962;2022-11-11T09:21:56;11.75;;;3.42;;
71104;SDS011;58760;48.716;8.962;2022-11-11T09:24:22;8.30;;;3.63;;
71104;SDS011;58760;48.716;8.962;2022-11-11T09:26:47;8.48;;;3.30;;
71104;SDS011;58760;48.716;8.962;2022-11-11T09:29:14;6.32;;;2.83;;
71104;SDS011;58760;48.716;8.962;2022-11-11T09:31:39;7.45;;;2.85;;
71104;SDS011;58760;48.716;8.962;2022-11-11T09:34:04;8.10;;;3.05;;
71104;SDS011;58760;48.716;8.962;2022-11-11T09:36:31;6.68;;;3.35;;
71104;SDS011;58760;48.716;8.962;2022-11-11T09:38:57;7.63;;;3.10;;
71104;SDS011;58760;48.716;8.962;2022-11-11T09:41:35;5.93;;;2.63;;
71104;SDS011;58760;48.716;8.962;2022-11-11T09:44:18;8.48;;;3.03;;
71104;SDS011;58760;48.716;8.962;2022-11-11T09:50:04;9.00;;;3.40;;
71104;SDS011;58760;48.716;8.962;2022-11-11T09:52:36;8.13;;;3.05;;
71104;SDS011;58760;48.716;8.962;2022-11-11T09:57:55;8.80;;;3.03;;
71104;SDS011;58760;48.716;8.962;2022-11-11T10:00:28;10.23;;;3.58;;
71104;SDS011;58760;48.716;8.962;2022-11-11T10:03:03;11.48;;;3.05;;
71104;SDS011;58760;48.716;8.962;2022-11-11T10:05:41;7.43;;;2.92;;
71104;SDS011;58760;48.716;8.962;2022-11-11T10:08:12;6.68;;;2.60;;
71104;SDS011;58760;48.716;8.962;2022-11-11T10:10:42;7.70;;;2.90;;
71104;SDS011;58760;48.716;8.962;2022-11-11T10:13:11;7.53;;;2.75;;
71104;SDS011;58760;48.716;8.962;2022-11-11T10:15:46;6.13;;;2.70;;
71104;SDS011;58760;48.716;8.962;2022-11-11T10:18:17;8.65;;;2.83;;
71104;SDS011;58760;48.716;8.962;2022-11-11T10:20:47;9.07;;;3.00;;
71104;SDS011;58760;48.716;8.962;2022-11-11T10:23:19;8.32;;;2.92;;
71104;SDS011;58760;48.716;8.962;2022-11-11T10:25:54;6.82;;;2.78;;
71104;SDS011;58760;48.716;8.962;2022-11-11T10:28:25;6.80;;;2.97;;
71104;SDS011;58760;48.716;8.962;2022-11-11T10:30:54;7.10;;;2.50;;
71104;SDS011;58760;48.716;8.962;2022-11-11T10:33:26;7.35;;;2.83;;
71104;SDS011;58760;48.716;8.962;2022-11-11T10:35:53;8.00;;;3.00;;
71104;SDS011;58760;48.716;8.962;2022-11-11T10:41:22;11.35;;;3.30;;
71104;SDS011;58760;48.716;8.962;2022-11-11T10:43:56;7.82;;;3.10;;
71104;SDS011;58760;48.716;8.962;2022-11-11T10:49:19;6.20;;;2.75;;
71104;SDS011;58760;48.716;8.962;2022-11-11T10:51:56;6.95;;;2.28;;
71104;SDS011;58760;48.716;8.962;2022-11-11T10:54:45;7.45;;;2.58;;
71104;SDS011;58760;48.716;8.962;2022-11-11T10:57:19;7.63;;;2.58;;
71104;SDS011;58760;48.716;8.962;2022-11-11T10:59:59;7.32;;;2.90;;
71104;SDS011;58760;48.716;8.962;2022-11-11T11:02:36;9.35;;;2.40;;
71104;SDS011;58760;48.716;8.962;2022-11-11T11:05:09;5.05;;;2.50;;
71104;SDS011;58760;48.716;8.962;2022-11-11T11:07:40;7.93;;;2.83;;
71104;SDS011;58760;48.716;8.962;2022-11-11T11:10:23;5.25;;;2.35;;
71104;SDS011;58760;48.716;8.962;2022-11-11T11:13:10;6.50;;;2.35;;
71104;SDS011;58760;48.716;8.962;2022-11-11T11:15:42;4.63;;;1.98;;
71104;SDS011;58760;48.716;8.962;2022-11-11T11:18:14;6.95;;;2.67;;
71104;SDS011;58760;48.716;8.962;2022-11-11T11:20:54;9.82;;;2.30;;
71104;SDS011;58760;48.716;8.962;2022-11-11T11:23:37;6.05;;;2.00;;
71104;SDS011;58760;48.716;8.962;2022-11-11T11:26:03;5.47;;;2.15;;
71104;SDS011;58760;48.716;8.962;2022-11-11T11:28:29;7.95;;;2.13;;
71104;SDS011;58760;48.716;8.962;2022-11-11T11:31:13;5.88;;;2.40;;
71104;SDS011;58760;48.716;8.962;2022-11-11T11:33:49;6.90;;;2.35;;
71104;SDS011;58760;48.716;8.962;2022-11-11T11:36:15;6.60;;;1.88;;
71104;SDS011;58760;48.716;8.962;2022-11-11T11:38:43;4.60;;;1.67;;
71104;SDS011;58760;48.716;8.962;2022-11-11T11:41:15;5.82;;;1.70;;
71104;SDS011;58760;48.716;8.962;2022-11-11T11:43:42;4.50;;;1.63;;
71104;SDS011;58760;48.716;8.962;2022-11-11T11:49:07;4.90;;;1.38;;
71104;SDS011;58760;48.716;8.962;2022-11-11T11:51:48;3.50;;;1.27;;
71104;SDS011;58760;48.716;8.962;2022-11-11T11:54:24;7.70;;;1.70;;
71104;SDS011;58760;48.716;8.962;2022-11-11T11:57:02;4.35;;;1.45;;
71104;SDS011;58760;48.716;8.962;2022-11-11T12:18:15;5.28;;;1.60;;
71104;SDS011;58760;48.716;8.962;2022-11-11T12:20:56;4.03;;;1.40;;
71104;SDS011;58760;48.716;8.962;2022-11-11T12:26:51;3.88;;;1.10;;
71104;SDS011;58760;48.716;8.962;2022-11-11T12:51:13;4.88;;;1.30;;
71104;SDS011;58760;48.716;8.962;2022-11-11T13:10:16;2.60;;;0.82;;
71104;SDS011;58760;48.716;8.962;2022-11-11T13:17:38;3.42;;;1.20;;
71104;SDS011;58760;48.716;8.962;2022-11-11T13:22:48;3.20;;;1.40;;
71104;SDS011;58760;48.716;8.962;2022-11-11T13:25:22;6.70;;;1.45;;
71104;SDS011;58760;48.716;8.962;2022-11-11T13:27:55;5.43;;;1.30;;
71104;SDS011;58760;48.716;8.962;2022-11-11T13:33:12;2.97;;;1.10;;
71104;SDS011;58760;48.716;8.962;2022-11-11T13:35:45;3.83;;;1.30;;
71104;SDS011;58760;48.716;8.962;2022-11-11T13:38:50;7.03;;;1.30;;
71104;SDS011;58760;48.716;8.962;2022-11-11T13:41:17;4.45;;;1.17;;
71104;SDS011;58760;48.716;8.962;2022-11-11T13:43:47;6.43;;;1.35;;
71104;SDS011;58760;48.716;8.962;2022-11-11T13:48:53;3.95;;;1.48;;
71104;SDS011;58760;48.716;8.962;2022-11-11T13:51:21;4.10;;;1.27;;
71104;SDS011;58760;48.716;8.962;2022-11-11T13:53:51;4.30;;;1.40;;
71104;SDS011;58760;48.716;8.962;2022-11-11T13:58:55;2.88;;;1.15;;
71104;SDS011;58760;48.716;8.962;2022-11-11T14:01:22;4.47;;;1.13;;
71104;SDS011;58760;48.716;8.962;2022-11-11T14:13:51;2.88;;;0.90;;
71104;SDS011;58760;48.716;8.962;2022-11-11T14:16:56;2.55;;;0.90;;
71104;SDS011;58760;48.716;8.962;2022-11-11T14:19:38;2.88;;;1.05;;
71104;SDS011;58760;48.716;8.962;2022-11-11T14:22:00;3.58;;;1.08;;
71104;SDS011;58760;48.716;8.962;2022-11-11T14:24:43;5.30;;;1.20;;
71104;SDS011;58760;48.716;8.962;2022-11-11T14:29:51;3.47;;;1.10;;
71104;SDS011;58760;48.716;8.962;2022-11-11T14:40:33;3.97;;;1.10;;
71104;SDS011;58760;48.716;8.962;2022-11-11T14:42:59;3.22;;;1.10;;
71104;SDS011;58760;48.716;8.962;2022-11-11T14:46:00;2.42;;;0.90;;
71104;SDS011;58760;48.716;8.962;2022-11-11T14:48:50;2.88;;;1.08;;
71104;SDS011;58760;48.716;8.962;2022-11-11T14:54:20;2.88;;;1.10;;
71104;SDS011;58760;48.716;8.962;2022-11-11T14:56:57;3.60;;;1.20;;
71104;SDS011;58760;48.716;8.962;2022-11-11T14:59:27;3.42;;;1.20;;
71104;SDS011;58760;48.716;8.962;2022-11-11T15:01:54;5.50;;;1.17;;
71104;SDS011;58760;48.716;8.962;2022-11-11T15:04:21;4.18;;;1.10;;
71104;SDS011;58760;48.716;8.962;2022-11-11T15:15:40;4.53;;;1.20;;
71104;SDS011;58760;48.716;8.962;2022-11-11T15:21:04;4.75;;;1.20;;
71104;SDS011;58760;48.716;8.962;2022-11-11T15:26:11;6.63;;;1.30;;
71104;SDS011;58760;48.716;8.962;2022-11-11T15:39:16;6.68;;;1.45;;
71104;SDS011;58760;48.716;8.962;2022-11-11T15:41:45;5.13;;;1.50;;
71104;SDS011;58760;48.716;8.962;2022-11-11T15:44:26;5.00;;;1.50;;
71104;SDS011;58760;48.716;8.962;2022-11-11T15:46:55;7.25;;;1.55;;
71104;SDS011;58760;48.716;8.962;2022-11-11T15:49:38;8.93;;;1.80;;
71104;SDS011;58760;48.716;8.962;2022-11-11T15:52:10;5.90;;;1.33;;
71104;SDS011;58760;48.716;8.962;2022-11-11T15:54:48;5.50;;;1.45;;
71104;SDS011;58760;48.716;8.962;2022-11-11T15:57:24;4.75;;;1.55;;
71104;SDS011;58760;48.716;8.962;2022-11-11T15:59:51;6.07;;;1.83;;
71104;SDS011;58760;48.716;8.962;2022-11-11T16:02:22;6.28;;;1.80;;
71104;SDS011;58760;48.716;8.962;2022-11-11T16:04:56;9.32;;;2.40;;
71104;SDS011;58760;48.716;8.962;2022-11-11T16:07:34;7.78;;;2.03;;
71104;SDS011;58760;48.716;8.962;2022-11-11T16:12:46;7.00;;;2.20;;
71104;SDS011;58760;48.716;8.962;2022-11-11T16:15:24;7.28;;;2.33;;
71104;SDS011;58760;48.716;8.962;2022-11-11T16:18:17;6.55;;;2.58;;
71104;SDS011;58760;48.716;8.962;2022-11-11T16:20:48;6.95;;;2.35;;
71104;SDS011;58760;48.716;8.962;2022-11-11T16:23:18;8.52;;;2.75;;
71104;SDS011;58760;48.716;8.962;2022-11-11T16:25:46;8.02;;;2.67;;
71104;SDS011;58760;48.716;8.962;2022-11-11T16:28:13;8.02;;;2.83;;
71104;SDS011;58760;48.716;8.962;2022-11-11T16:30:40;8.35;;;2.88;;
71104;SDS011;58760;48.716;8.962;2022-11-11T16:33:17;7.93;;;2.45;;
71104;SDS011;58760;48.716;8.962;2022-11-11T16:36:07;10.38;;;2.55;;
71104;SDS011;58760;48.716;8.962;2022-11-11T16:38:34;8.98;;;3.15;;
71104;SDS011;58760;48.716;8.962;2022-11-11T16:41:00;6.88;;;2.40;;
71104;SDS011;58760;48.716;8.962;2022-11-11T16:43:41;10.18;;;2.45;;
71104;SDS011;58760;48.716;8.962;2022-11-11T16:46:13;7.68;;;2.88;;
71104;SDS011;58760;48.716;8.962;2022-11-11T16:51:10;5.75;;;2.15;;
71104;SDS011;58760;48.716;8.962;2022-11-11T16:53:42;8.27;;;2.67;;
71104;SDS011;58760;48.716;8.962;2022-11-11T16:56:26;6.95;;;2.67;;
71104;SDS011;58760;48.716;8.962;2022-11-11T16:58:59;8.52;;;3.63;;
71104;SDS011;58760;48.716;8.962;2022-11-11T17:01:29;11.25;;;4.55;;
71104;SDS011;58760;48.716;8.962;2022-11-11T17:04:03;11.20;;;4.53;;
71104;SDS011;58760;48.716;8.962;2022-11-11T17:06:48;10.00;;;4.20;;
71104;SDS011;58760;48.716;8.962;2022-11-11T17:12:05;8.25;;;3.40;;
71104;SDS011;58760;48.716;8.962;2022-11-11T17:14:36;10.70;;;3.70;;
71104;SDS011;58760;48.716;8.962;2022-11-11T17:17:03;5.78;;;2.70;;
71104;SDS011;58760;48.716;8.962;2022-11-11T17:19:31;8.85;;;3.03;;
71104;SDS011;58760;48.716;8.962;2022-11-11T17:22:03;7.78;;;2.58;;
71104;SDS011;58760;48.716;8.962;2022-11-11T17:24:30;6.15;;;2.40;;
71104;SDS011;58760;48.716;8.962;2022-11-11T17:26:55;8.43;;;3.10;;
71104;SDS011;58760;48.716;8.962;2022-11-11T17:29:21;7.90;;;2.70;;
71104;SDS011;58760;48.716;8.962;2022-11-11T17:31:46;7.53;;;3.08;;
71104;SDS011;58760;48.716;8.962;2022-11-11T17:34:11;11.85;;;2.90;;
71104;SDS011;58760;48.716;8.962;2022-11-11T17:36:37;7.10;;;2.33;;
71104;SDS011;58760;48.716;8.962;2022-11-11T17:39:02;8.07;;;2.90;;
71104;SDS011;58760;48.716;8.962;2022-11-11T17:41:28;8.18;;;3.22;;
71104;SDS011;58760;48.716;8.962;2022-11-11T17:43:53;7.53;;;3.25;;
71104;SDS011;58760;48.716;8.962;2022-11-11T17:46:18;9.15;;;3.85;;
71104;SDS011;58760;48.716;8.962;2022-11-11T17:48:44;9.15;;;3.50;;
71104;SDS011;58760;48.716;8.962;2022-11-11T17:51:09;10.07;;;3.50;;
71104;SDS011;58760;48.716;8.962;2022-11-11T17:53:35;8.57;;;3.63;;
71104;SDS011;58760;48.716;8.962;2022-11-11T17:56:04;11.50;;;4.60;;
71104;SDS011;58760;48.716;8.962;2022-11-11T17:58:31;10.98;;;3.67;;
71104;SDS011;58760;48.716;8.962;2022-11-11T18:01:03;7.75;;;3.00;;
71104;SDS011;58760;48.716;8.962;2022-11-11T18:03:30;8.38;;;3.60;;
71104;SDS011;58760;48.716;8.962;2022-11-11T18:05:55;9.00;;;3.35;;
71104;SDS011;58760;48.716;8.962;2022-11-11T18:08:20;7.07;;;3.00;;
71104;SDS011;58760;48.716;8.962;2022-11-11T18:10:46;7.38;;;2.90;;
71104;SDS011;58760;48.716;8.962;2022-11-11T18:13:11;8.02;;;3.05;;
71104;SDS011;58760;48.716;8.962;2022-11-11T18:15:36;7.43;;;3.25;;
71104;SDS011;58760;48.716;8.962;2022-11-11T18:18:02;7.90;;;3.15;;
71104;SDS011;58760;48.716;8.962;2022-11-11T18:20:27;6.10;;;3.15;;
71104;SDS011;58760;48.716;8.962;2022-11-11T18:22:55;9.27;;;3.38;;
71104;SDS011;58760;48.716;8.962;2022-11-11T18:25:21;9.93;;;4.30;;
71104;SDS011;58760;48.716;8.962;2022-11-11T18:27:46;8.48;;;3.65;;
71104;SDS011;58760;48.716;8.962;2022-11-11T18:30:12;12.02;;;3.55;;
71104;SDS011;58760;48.716;8.962;2022-11-11T18:32:38;7.82;;;3.65;;
71104;SDS011;58760;48.716;8.962;2022-11-11T18:35:03;10.93;;;4.20;;
71104;SDS011;58760;48.716;8.962;2022-11-11T18:37:29;9.30;;;4.57;;
71104;SDS011;58760;48.716;8.962;2022-11-11T18:39:55;10.63;;;4.28;;
71104;SDS011;58760;48.716;8.962;2022-11-11T18:42:20;9.95;;;4.30;;
71104;SDS011;58760;48.716;8.962;2022-11-11T18:44:45;10.80;;;4.85;;
71104;SDS011;58760;48.716;8.962;2022-11-11T18:47:11;7.95;;;4.30;;
71104;SDS011;58760;48.716;8.962;2022-11-11T18:49:36;10.15;;;4.70;;
71104;SDS011;58760;48.716;8.962;2022-11-11T18:52:01;10.20;;;4.57;;
71104;SDS011;58760;48.716;8.962;2022-11-11T18:54:27;8.82;;;4.53;;
71104;SDS011;58760;48.716;8.962;2022-11-11T18:56:52;11.88;;;5.47;;
71104;SDS011;58760;48.716;8.962;2022-11-11T18:59:19;16.45;;;6.13;;
71104;SDS011;58760;48.716;8.962;2022-11-11T19:04:10;12.23;;;5.75;;
71104;SDS011;58760;48.716;8.962;2022-11-11T19:06:36;12.43;;;6.40;;
71104;SDS011;58760;48.716;8.962;2022-11-11T19:09:04;15.35;;;7.07;;
71104;SDS011;58760;48.716;8.962;2022-11-11T19:11:30;12.50;;;6.72;;
71104;SDS011;58760;48.716;8.962;2022-11-11T19:13:58;16.40;;;7.75;;
71104;SDS011;58760;48.716;8.962;2022-11-11T19:16:23;15.57;;;8.27;;
71104;SDS011;58760;48.716;8.962;2022-11-11T19:18:50;16.73;;;8.52;;
71104;SDS011;58760;48.716;8.962;2022-11-11T19:21:19;13.70;;;8.43;;
71104;SDS011;58760;48.716;8.962;2022-11-11T19:23:47;16.15;;;8.52;;
71104;SDS011;58760;48.716;8.962;2022-11-11T19:26:14;13.55;;;7.07;;
71104;SDS011;58760;48.716;8.962;2022-11-11T19:28:40;21.33;;;8.63;;
71104;SDS011;58760;48.716;8.962;2022-11-11T19:31:11;14.50;;;7.50;;